Time;durP1;ratioP1;P1;durP2;ratioP2;P2;SDS_P1;SDS_P2;PMS_P1;PMS_P2;Temp;Humidity;BMP_temperature;BMP_pressure;BME280_temperature;BME280_humidity;BME280_pressure;Samples;Min_cycle;Max_cycle;Signal;HPM_P1;HPM_P2
2024/04/17 00:01:57;;;;;;;;;;;;;;;6.21;78.88;96962.53;5479949;25;20265;-56
2024/04/17 00:04:46;;;;;;;;;;;;;;;6.20;78.69;96966.34;5500909;25;20004;-57
2024/04/17 00:07:34;;;;;;;;;;;;;;;6.21;78.46;96964.44;5499211;26;19934;-57
2024/04/17 00:10:26;;;;;;;;;;;;;;;6.16;78.67;96964.56;5513602;26;19934;-57
2024/04/17 00:13:13;;;;;;;;;;;;;;;6.12;79.18;96975.16;5514130;25;19935;-57
2024/04/17 00:16:06;;;;;;;;;;;;;;;6.19;78.77;96972.84;5491351;25;19936;-57
2024/04/17 00:18:53;;;;;;;;;;;;;;;6.23;78.63;96976.53;5475677;26;19942;-56
2024/04/17 00:21:43;;;;;;;;;;;;;;;6.26;78.78;96975.13;5499881;25;19935;-56
2024/04/17 00:24:33;;;;;;;;;;;;;;;6.28;78.79;96972.91;5510329;25;20351;-56
2024/04/17 00:27:20;;;;;;;;;;;;;;;6.23;78.95;96981.94;5511956;26;19928;-57
2024/04/17 00:30:10;;;;;;;;;;;;;;;6.12;79.77;96980.56;5511093;25;19935;-57
2024/04/17 00:33:01;;;;;;;;;;;;;;;6.16;79.56;96970.75;5507633;25;19935;-57
2024/04/17 00:35:51;;;;;;;;;;;;;;;6.07;79.92;96971.78;5503667;25;20215;-57
2024/04/17 00:38:40;;;;;;;;;;;;;;;5.99;80.30;96971.41;5507018;25;20290;-56
2024/04/17 00:41:28;;;;;;;;;;;;;;;5.95;80.62;96969.63;5509814;25;19935;-57
2024/04/17 00:44:17;;;;;;;;;;;;;;;5.84;80.50;96963.63;5509753;25;20004;-58
2024/04/17 00:47:05;;;;;;;;;;;;;;;5.86;80.95;96963.31;5516020;25;19963;-57
2024/04/17 00:49:58;;;;;;;;;;;;;;;5.84;81.09;96962.84;5499842;25;19942;-56
2024/04/17 00:52:45;;;;;;;;;;;;;;;5.81;81.11;96955.38;5504184;25;19975;-57
2024/04/17 00:55:38;;;;;;;;;;;;;;;5.84;81.07;96960.16;5508171;25;20564;-57
2024/04/17 00:58:25;;;;;;;;;;;;;;;5.82;80.99;96959.66;5514181;26;19939;-57
2024/04/17 01:01:15;;;;;;;;;;;;;;;5.71;81.83;96953.69;5509360;25;19938;-57
2024/04/17 01:04:02;;;;;;;;;;;;;;;5.73;81.37;96952.28;5512360;25;19928;-56
2024/04/17 01:06:55;;;;;;;;;;;;;;;5.83;81.22;96956.66;5515495;26;19931;-56
2024/04/17 01:09:42;;;;;;;;;;;;;;;5.73;81.24;96957.66;5501242;25;19935;-57
2024/04/17 01:12:32;;;;;;;;;;;;;;;5.76;81.23;96949.00;5515858;25;19927;-58
2024/04/17 01:15:22;;;;;;;;;;;;;;;5.73;80.98;96946.09;5505645;25;19927;-56
2024/04/17 01:18:12;;;;;;;;;;;;;;;5.77;80.87;96947.09;5501117;25;19934;-56
2024/04/17 01:21:02;;;;;;;;;;;;;;;5.67;80.95;96948.09;5509951;26;19928;-57
2024/04/17 01:23:54;;;;;;;;;;;;;;;5.75;80.99;96946.59;5503029;25;19927;-56
2024/04/17 01:26:42;;;;;;;;;;;;;;;5.76;81.24;96946.31;5510076;25;20257;-57
2024/04/17 01:29:31;;;;;;;;;;;;;;;5.71;80.78;96948.31;5509553;25;20069;-57
2024/04/17 01:32:19;;;;;;;;;;;;;;;5.70;80.53;96941.31;5509984;25;19935;-59
2024/04/17 01:35:09;;;;;;;;;;;;;;;5.81;80.27;96944.59;5515044;26;19963;-57
2024/04/17 01:37:56;;;;;;;;;;;;;;;5.69;80.70;96945.09;5507445;25;19928;-57
2024/04/17 01:40:48;;;;;;;;;;;;;;;5.70;80.63;96938.59;5502962;25;19979;-57
2024/04/17 01:43:36;;;;;;;;;;;;;;;5.66;80.37;96941.13;5498124;25;19943;-56
2024/04/17 01:46:26;;;;;;;;;;;;;;;5.65;80.80;96936.06;5512061;25;19968;-57
2024/04/17 01:49:13;;;;;;;;;;;;;;;5.67;80.81;96944.63;5504429;25;19935;-58
2024/04/17 01:52:02;;;;;;;;;;;;;;;5.63;80.61;96940.94;5511981;26;19928;-57
2024/04/17 01:54:50;;;;;;;;;;;;;;;5.68;80.46;96949.69;5494484;26;19928;-56
2024/04/17 01:57:42;;;;;;;;;;;;;;;5.77;80.13;96949.78;5513450;26;20273;-58
2024/04/17 02:00:30;;;;;;;;;;;;;;;5.77;80.05;96947.09;5515595;25;19928;-56
2024/04/17 02:03:22;;;;;;;;;;;;;;;5.73;80.44;96952.28;5507520;25;19946;-56
2024/04/17 02:06:10;;;;;;;;;;;;;;;5.73;80.06;96957.66;5506291;25;20272;-57
2024/04/17 02:09:00;;;;;;;;;;;;;;;5.72;80.11;96950.69;5505179;25;20250;-57
2024/04/17 02:11:48;;;;;;;;;;;;;;;5.79;79.53;96951.06;5506956;25;19995;-57
2024/04/17 02:14:40;;;;;;;;;;;;;;;5.81;79.81;96950.78;5507555;25;19928;-57
2024/04/17 02:17:27;;;;;;;;;;;;;;;5.89;79.99;96960.81;5509921;25;19928;-57
2024/04/17 02:20:17;;;;;;;;;;;;;;;5.99;78.74;96959.84;5479511;21;19966;-70
2024/04/17 02:23:05;;;;;;;;;;;;;;;6.02;78.90;96951.16;5401649;26;19929;-71
2024/04/17 02:25:55;;;;;;;;;;;;;;;5.99;79.30;96959.84;5415511;26;19929;-70
2024/04/17 02:28:42;;;;;;;;;;;;;;;6.04;78.27;96962.41;5380448;26;19935;-70
2024/04/17 02:31:34;;;;;;;;;;;;;;;6.01;78.60;96957.63;5409395;26;19949;-70
2024/04/17 02:34:22;;;;;;;;;;;;;;;5.98;78.31;96963.66;5401712;26;19939;-71
2024/04/17 02:37:12;;;;;;;;;;;;;;;5.99;78.86;96966.03;5404721;26;19957;-70
2024/04/17 02:39:59;;;;;;;;;;;;;;;6.06;78.78;96964.81;5412023;26;20318;-70
2024/04/17 02:42:49;;;;;;;;;;;;;;;5.99;78.22;96966.03;5436807;26;19936;-70
2024/04/17 02:45:36;;;;;;;;;;;;;;;6.02;78.43;96965.44;5413059;26;20380;-70
2024/04/17 02:48:29;;;;;;;;;;;;;;;6.01;78.17;96971.09;5424257;26;20069;-70
2024/04/17 02:51:16;;;;;;;;;;;;;;;6.08;77.68;96966.09;5433107;26;19948;-70
2024/04/17 02:54:06;;;;;;;;;;;;;;;6.00;78.26;96969.50;5448157;26;19997;-75
2024/04/17 02:56:53;;;;;;;;;;;;;;;5.96;78.24;96972.00;5418897;26;19958;-77
2024/04/17 02:59:43;;;;;;;;;;;;;;;6.01;78.14;96973.81;5402887;26;19936;-74
2024/04/17 03:02:30;;;;;;;;;;;;;;;6.05;78.02;96969.41;5417952;26;19940;-75
2024/04/17 03:05:23;;;;;;;;;;;;;;;6.03;78.05;96977.00;5398330;26;20008;-75
2024/04/17 03:08:10;;;;;;;;;;;;;;;6.10;78.11;96980.06;5421599;26;20319;-74
2024/04/17 03:11:00;;;;;;;;;;;;;;;6.12;78.26;96983.25;5413041;26;19994;-75
2024/04/17 03:13:47;;;;;;;;;;;;;;;6.09;77.55;96986.56;5412145;26;19932;-75
2024/04/17 03:16:37;;;;;;;;;;;;;;;6.18;76.86;96981.22;5445304;26;21007;-77
2024/04/17 03:19:25;;;;;;;;;;;;;;;6.06;76.92;96980.97;5435695;26;19944;-74
2024/04/17 03:22:17;;;;;;;;;;;;;;;6.06;76.82;96981.78;5407343;26;20385;-75
2024/04/17 03:25:05;;;;;;;;;;;;;;;6.17;76.71;96977.75;5400992;26;19937;-74
2024/04/17 03:27:55;;;;;;;;;;;;;;;6.20;76.84;96989.84;5439879;26;19936;-74
2024/04/17 03:30:46;;;;;;;;;;;;;;;6.19;76.56;96977.47;5441085;26;19947;-77
2024/04/17 03:33:36;;;;;;;;;;;;;;;6.14;77.69;96994.53;5411600;26;19940;-77
2024/04/17 03:36:23;;;;;;;;;;;;;;;6.09;77.04;96986.56;5413856;26;20001;-76
2024/04/17 03:39:15;;;;;;;;;;;;;;;6.15;76.43;96995.34;5420962;26;20264;-74
2024/04/17 03:42:05;;;;;;;;;;;;;;;6.15;76.34;96990.75;5407104;26;19936;-76
2024/04/17 03:44:55;;;;;;;;;;;;;;;6.24;76.22;96996.22;5437606;26;19936;-76
2024/04/17 03:47:45;;;;;;;;;;;;;;;6.19;76.17;96991.72;5406123;26;20605;-74
2024/04/17 03:50:35;;;;;;;;;;;;;;;6.21;76.15;97000.31;5436593;26;19953;-74
2024/04/17 03:53:25;;;;;;;;;;;;;;;6.10;76.85;96998.94;5432041;26;19936;-76
2024/04/17 03:56:17;;;;;;;;;;;;;;;6.13;76.94;96995.66;5426327;26;19964;-75
2024/04/17 03:59:05;;;;;;;;;;;;;;;6.03;76.54;96990.50;5418239;26;19950;-75
2024/04/17 04:01:55;;;;;;;;;;;;;;;6.13;76.58;96998.34;5410247;26;20792;-75
2024/04/17 04:04:42;;;;;;;;;;;;;;;6.10;77.83;97001.66;5435411;26;19943;-75
2024/04/17 04:07:32;;;;;;;;;;;;;;;6.13;77.49;97001.06;5444264;26;19966;-77
2024/04/17 04:10:19;;;;;;;;;;;;;;;6.17;76.85;96999.31;5413400;26;19928;-76
2024/04/17 04:13:12;;;;;;;;;;;;;;;6.10;76.49;97001.66;5412440;26;20272;-76
2024/04/17 04:15:59;;;;;;;;;;;;;;;6.22;76.55;97006.50;5404695;26;19937;-75
2024/04/17 04:18:49;;;;;;;;;;;;;;;6.32;76.16;97000.06;5437985;26;19935;-76
2024/04/17 04:21:36;;;;;;;;;;;;;;;6.27;75.51;96999.09;5401982;26;19929;-76
2024/04/17 04:24:26;;;;;;;;;;;;;;;6.33;75.82;97004.34;5449392;26;19929;-76
2024/04/17 04:27:16;;;;;;;;;;;;;;;6.34;75.42;97009.47;5434698;26;19936;-77
2024/04/17 04:30:07;;;;;;;;;;;;;;;6.23;75.33;97008.91;5407029;26;19964;-82
2024/04/17 04:32:57;;;;;;;;;;;;;;;6.32;75.95;97008.97;5439492;26;19929;-77
2024/04/17 04:35:44;;;;;;;;;;;;;;;6.42;75.36;97016.03;5442889;26;19935;-78
2024/04/17 04:38:34;;;;;;;;;;;;;;;6.47;75.43;97013.22;5442578;26;19935;-77
2024/04/17 04:41:21;;;;;;;;;;;;;;;6.22;75.97;97022.69;5430803;26;20373;-77
2024/04/17 04:44:11;;;;;;;;;;;;;;;6.33;75.79;97018.66;5443626;26;20021;-77
2024/04/17 04:47:01;;;;;;;;;;;;;;;6.19;75.70;97023.31;5447374;26;19928;-77
2024/04/17 04:49:51;;;;;;;;;;;;;;;6.26;75.55;97024.47;5415308;26;19933;-76
2024/04/17 04:52:38;;;;;;;;;;;;;;;6.22;75.71;97022.69;5436618;26;20009;-79
2024/04/17 04:55:30;;;;;;;;;;;;;;;6.18;75.97;97027.91;5440725;26;19939;-74
2024/04/17 04:58:17;;;;;;;;;;;;;;;6.20;75.78;97028.38;5444368;26;22161;-76
2024/04/17 05:01:07;;;;;;;;;;;;;;;6.20;75.79;97033.78;5406592;26;19929;-72
2024/04/17 05:04:00;;;;;;;;;;;;;;;6.14;75.99;97031.50;5432053;26;20418;-75
2024/04/17 05:06:49;;;;;;;;;;;;;;;6.25;75.93;97030.16;5440400;26;20001;-72
2024/04/17 05:09:41;;;;;;;;;;;;;;;6.36;75.97;97033.44;5403725;26;19994;-72
2024/04/17 05:12:29;;;;;;;;;;;;;;;6.32;75.32;97032.44;5448427;26;19932;-82
2024/04/17 05:15:18;;;;;;;;;;;;;;;6.19;75.37;97029.50;5444420;26;19928;-78
2024/04/17 05:18:06;;;;;;;;;;;;;;;6.14;76.07;97039.59;5441577;26;19935;-75
2024/04/17 05:20:59;;;;;;;;;;;;;;;6.14;76.28;97037.69;5410798;26;19929;-82
2024/04/17 05:23:46;;;;;;;;;;;;;;;6.14;76.50;97040.41;5441025;26;19939;-72
2024/04/17 05:26:36;;;;;;;;;;;;;;;6.23;76.42;97046.66;5408682;26;19933;-78
2024/04/17 05:29:23;;;;;;;;;;;;;;;6.11;77.22;97041.00;5435372;26;19940;-76
2024/04/17 05:32:13;;;;;;;;;;;;;;;6.29;77.38;97055.44;5442758;26;19929;-71
2024/04/17 05:35:01;;;;;;;;;;;;;;;6.33;76.81;97051.00;5424974;26;19936;-71
2024/04/17 05:37:53;;;;;;;;;;;;;;;6.40;76.56;97051.41;5421559;26;20427;-73
2024/04/17 05:40:43;;;;;;;;;;;;;;;6.36;76.34;97052.31;5415002;26;19933;-73
2024/04/17 05:43:33;;;;;;;;;;;;;;;6.51;76.34;97058.16;5437032;26;19976;-73
2024/04/17 05:46:25;;;;;;;;;;;;;;;6.62;76.38;97053.31;5439142;26;19935;-73
2024/04/17 05:49:14;;;;;;;;;;;;;;;6.63;75.89;97054.91;5439663;26;19928;-73
2024/04/17 05:52:01;;;;;;;;;;;;;;;6.74;75.43;97050.06;5425784;26;19957;-72
2024/04/17 05:54:54;;;;;;;;;;;;;;;6.71;75.03;97042.56;5446689;26;19937;-73
2024/04/17 05:57:42;;;;;;;;;;;;;;;6.57;75.91;97056.94;5450140;26;19928;-72
2024/04/17 06:00:32;;;;;;;;;;;;;;;6.49;75.91;97059.56;5430937;26;19929;-73
2024/04/17 06:03:22;;;;;;;;;;;;;;;6.39;76.23;97063.31;5428738;26;20620;-72
2024/04/17 06:06:09;;;;;;;;;;;;;;;6.50;76.44;97061.97;5451899;26;19957;-73
2024/04/17 06:08:59;;;;;;;;;;;;;;;6.60;76.23;97062.81;5420375;26;19997;-73
2024/04/17 06:11:50;;;;;;;;;;;;;;;6.62;75.44;97064.13;5417973;26;19928;-72
2024/04/17 06:14:40;;;;;;;;;;;;;;;6.75;75.43;97071.34;5447133;26;19937;-72
2024/04/17 06:17:27;;;;;;;;;;;;;;;6.74;75.89;97063.56;5441400;26;19932;-73
2024/04/17 06:20:17;;;;;;;;;;;;;;;6.82;75.77;97062.84;5446133;26;20002;-73
2024/04/17 06:23:05;;;;;;;;;;;;;;;6.89;75.38;97065.09;5453475;26;20357;-78
2024/04/17 06:25:55;;;;;;;;;;;;;;;6.87;74.76;97070.00;5428895;26;20179;-78
2024/04/17 06:28:45;;;;;;;;;;;;;;;6.85;74.72;97072.22;5425870;26;19929;-79
2024/04/17 06:31:35;;;;;;;;;;;;;;;6.88;74.73;97071.63;5397861;26;20480;-76
2024/04/17 06:34:23;;;;;;;;;;;;;;;6.85;75.32;97073.00;5449279;26;19936;-76
2024/04/17 06:37:16;;;;;;;;;;;;;;;6.89;75.45;97078.59;5434401;26;19996;-76
2024/04/17 06:40:03;;;;;;;;;;;;;;;6.83;75.51;97081.41;5425208;26;19962;-78
2024/04/17 06:42:53;;;;;;;;;;;;;;;6.83;76.00;97081.41;5418137;26;19928;-73
2024/04/17 06:45:45;;;;;;;;;;;;;;;6.82;76.19;97076.34;5425643;26;19928;-73
2024/04/17 06:48:35;;;;;;;;;;;;;;;6.88;75.34;97071.63;5425672;26;20276;-73
2024/04/17 06:51:22;;;;;;;;;;;;;;;6.94;75.47;97073.88;5402491;26;19932;-73
2024/04/17 06:54:12;;;;;;;;;;;;;;;7.02;75.54;97075.81;5424389;26;19928;-73
2024/04/17 06:57:00;;;;;;;;;;;;;;;7.01;75.74;97073.44;5441653;26;19935;-73
2024/04/17 06:59:52;;;;;;;;;;;;;;;6.95;75.52;97071.97;5432407;26;19936;-73
2024/04/17 07:02:45;;;;;;;;;;;;;;;6.90;75.55;97081.00;5450132;26;19929;-72
2024/04/17 07:05:38;;;;;;;;;;;;;;;6.86;76.21;97077.31;5415136;26;19938;-72
2024/04/17 07:08:28;;;;;;;;;;;;;;;6.67;76.53;97082.09;5425023;26;19940;-73
2024/04/17 07:11:15;;;;;;;;;;;;;;;6.62;76.31;97085.72;5450382;26;20289;-72
2024/04/17 07:14:05;;;;;;;;;;;;;;;6.57;76.65;97077.72;5417559;26;19993;-72
2024/04/17 07:16:53;;;;;;;;;;;;;;;6.56;77.32;97078.84;5414007;26;19957;-73
2024/04/17 07:19:46;;;;;;;;;;;;;;;6.58;77.61;97079.31;5423450;26;20665;-74
2024/04/17 07:22:34;;;;;;;;;;;;;;;6.63;77.32;97083.81;5405020;26;20260;-71
2024/04/17 07:25:24;;;;;;;;;;;;;;;6.59;77.10;97086.31;5423634;26;19940;-75
2024/04/17 07:28:12;;;;;;;;;;;;;;;6.59;77.69;97097.09;5445471;26;20364;-76
2024/04/17 07:31:02;;;;;;;;;;;;;;;6.50;77.82;97093.56;5442458;26;20339;-74
2024/04/17 07:33:49;;;;;;;;;;;;;;;6.50;78.69;97091.66;5448131;26;20279;-73
2024/04/17 07:36:42;;;;;;;;;;;;;;;6.47;78.44;97099.56;5419137;26;19960;-72
2024/04/17 07:39:29;;;;;;;;;;;;;;;6.51;77.86;97101.34;5393660;26;19935;-73
2024/04/17 07:42:19;;;;;;;;;;;;;;;6.52;78.08;97099.44;5437907;26;19929;-75
2024/04/17 07:45:12;;;;;;;;;;;;;;;6.47;78.08;97096.84;5435270;26;19998;-70
2024/04/17 07:47:59;;;;;;;;;;;;;;;6.42;78.81;97096.97;5405445;26;20383;-73
2024/04/17 07:50:50;;;;;;;;;;;;;;;6.49;78.53;97102.72;5415747;26;20265;-73
2024/04/17 07:53:40;;;;;;;;;;;;;;;6.40;78.95;97099.97;5440412;26;19941;-74
2024/04/17 07:56:30;;;;;;;;;;;;;;;6.54;79.00;97108.00;5415584;26;20372;-74
2024/04/17 07:59:19;;;;;;;;;;;;;;;6.60;79.05;97098.69;5436966;26;20026;-74
2024/04/17 08:02:10;;;;;;;;;;;;;;;6.53;77.98;97111.81;5410957;26;20006;-74
2024/04/17 08:04:57;;;;;;;;;;;;;;;6.48;77.80;97110.03;5434593;26;19936;-74
2024/04/17 08:07:47;;;;;;;;;;;;;;;6.54;78.45;97108.00;5440735;26;19937;-73
2024/04/17 08:10:37;;;;;;;;;;;;;;;6.70;77.72;97109.25;5442817;26;19953;-74
2024/04/17 08:13:27;;;;;;;;;;;;;;;6.88;78.11;97104.81;5438189;26;19952;-74
2024/04/17 08:16:14;;;;;;;;;;;;;;;7.01;77.23;97103.13;5410854;26;19936;-75
2024/04/17 08:19:04;;;;;;;;;;;;;;;7.16;76.97;97100.06;5450863;26;20001;-74
2024/04/17 08:21:51;;;;;;;;;;;;;;;7.26;76.56;97099.81;5413490;26;19936;-72
2024/04/17 08:24:41;;;;;;;;;;;;;;;7.33;76.36;97094.75;5440181;26;20361;-74
2024/04/17 08:27:31;;;;;;;;;;;;;;;7.32;76.36;97108.56;5442342;26;19929;-75
2024/04/17 08:30:21;;;;;;;;;;;;;;;7.22;76.16;97106.94;5439861;26;20725;-74
2024/04/17 08:33:08;;;;;;;;;;;;;;;7.16;76.15;97107.38;5411115;26;19933;-73
2024/04/17 08:35:59;;;;;;;;;;;;;;;7.17;75.71;97108.97;5416369;26;19934;-73
2024/04/17 08:38:46;;;;;;;;;;;;;;;7.09;76.34;97105.91;5415638;26;19937;-73
2024/04/17 08:41:39;;;;;;;;;;;;;;;7.01;76.28;97113.94;5407900;26;19929;-71
2024/04/17 08:44:29;;;;;;;;;;;;;;;6.99;76.40;97116.16;5444454;26;19928;-72
2024/04/17 08:47:19;;;;;;;;;;;;;;;7.06;76.52;97122.72;5432180;26;20335;-72
2024/04/17 08:50:07;;;;;;;;;;;;;;;7.11;76.50;97119.09;5425459;26;19964;-71
2024/04/17 08:52:57;;;;;;;;;;;;;;;7.07;76.08;97112.72;5439131;26;20121;-71
2024/04/17 08:55:45;;;;;;;;;;;;;;;7.09;76.38;97124.03;5434601;26;19932;-72
2024/04/17 08:58:35;;;;;;;;;;;;;;;7.12;76.31;97130.69;5444108;26;19928;-73
2024/04/17 09:01:29;;;;;;;;;;;;;;;7.30;76.35;97116.22;5410622;26;19941;-72
2024/04/17 09:04:16;;;;;;;;;;;;;;;7.44;75.96;97124.22;5434901;26;19944;-72
2024/04/17 09:07:06;;;;;;;;;;;;;;;7.54;75.84;97126.66;5444111;26;20314;-76
2024/04/17 09:09:55;;;;;;;;;;;;;;;7.51;75.33;97127.25;5448896;26;19936;-75
2024/04/17 09:12:45;;;;;;;;;;;;;;;7.58;74.87;97128.44;5426775;26;20372;-73
2024/04/17 09:15:32;;;;;;;;;;;;;;;7.60;73.81;97122.69;5439413;26;19941;-74
2024/04/17 09:18:28;;;;;;;;;;;;;;;7.60;71.41;97125.41;5403577;26;20548;-75
2024/04/17 09:21:16;;;;;;;;;;;;;;;7.72;73.25;97116.72;5411363;26;20700;-75
2024/04/17 09:24:06;;;;;;;;;;;;;;;7.95;71.78;97120.94;5432303;26;19936;-76
2024/04/17 09:26:53;;;;;;;;;;;;;;;8.23;71.30;97110.66;5430476;26;20401;-73
2024/04/17 09:29:43;;;;;;;;;;;;;;;8.63;70.95;97113.31;5450132;26;20276;-73
2024/04/17 09:32:31;;;;;;;;;;;;;;;8.92;69.52;97109.97;5444327;26;19936;-76
2024/04/17 09:35:25;;;;;;;;;;;;;;;8.78;67.69;97112.03;5399255;26;20294;-76
2024/04/17 09:38:13;;;;;;;;;;;;;;;8.80;67.55;97110.59;5428580;26;19940;-77
2024/04/17 09:41:03;;;;;;;;;;;;;;;9.05;64.54;97113.59;5416041;26;19929;-77
2024/04/17 09:43:50;;;;;;;;;;;;;;;9.24;62.40;97111.34;5415068;26;19934;-76
2024/04/17 09:46:40;;;;;;;;;;;;;;;9.03;64.14;97105.00;5450002;26;19963;-71
2024/04/17 09:49:27;;;;;;;;;;;;;;;9.09;63.83;97109.94;5445280;26;19964;-72
2024/04/17 09:52:20;;;;;;;;;;;;;;;8.61;65.43;97110.13;5440192;26;20452;-71
2024/04/17 09:55:08;;;;;;;;;;;;;;;8.96;65.50;97118.25;5426454;26;19932;-71
2024/04/17 09:57:57;;;;;;;;;;;;;;;9.03;61.96;97115.84;5438371;26;19936;-71
2024/04/17 10:00:47;;;;;;;;;;;;;;;9.46;62.36;97099.50;5442357;26;19929;-71
2024/04/17 10:03:36;;;;;;;;;;;;;;;9.49;61.99;97100.78;5451013;26;20255;-71
2024/04/17 10:06:26;;;;;;;;;;;;;;;9.41;60.83;97099.66;5413834;26;19929;-71
2024/04/17 10:09:16;;;;;;;;;;;;;;;8.97;62.11;97106.28;5446567;26;19978;-74
2024/04/17 10:12:06;;;;;;;;;;;;;;;8.98;61.79;97105.19;5434861;26;19928;-73
2024/04/17 10:14:53;;;;;;;;;;;;;;;9.11;62.30;97101.50;5415007;26;20008;-71
2024/04/17 10:17:43;;;;;;;;;;;;;;;9.01;60.54;97093.72;5451555;26;19929;-71
2024/04/17 10:20:30;;;;;;;;;;;;;;;9.19;61.46;97100.69;5451158;26;19943;-77
2024/04/17 10:23:20;;;;;;;;;;;;;;;8.85;64.76;97099.63;5416574;26;19936;-75
2024/04/17 10:26:10;;;;;;;;;;;;;;;8.78;64.94;97103.91;5435947;26;19928;-75
2024/04/17 10:29:00;;;;;;;;;;;;;;;8.63;65.82;97103.28;5410481;26;19928;-74
2024/04/17 10:31:56;;;;;;;;;;;;;;;8.62;66.05;97117.13;5413089;26;19929;-75
2024/04/17 10:34:51;;;;;;;;;;;;;;;8.60;66.24;97111.22;5420999;26;20315;-75
2024/04/17 10:37:39;;;;;;;;;;;;;;;8.72;66.26;97103.25;5450465;26;19937;-75
2024/04/17 10:40:28;;;;;;;;;;;;;;;8.67;66.94;97106.13;5412611;26;20323;-75
2024/04/17 10:43:18;;;;;;;;;;;;;;;8.71;66.67;97109.81;5436563;26;20368;-75
2024/04/17 10:46:09;;;;;;;;;;;;;;;8.82;66.50;97105.66;5417550;26;19979;-74
2024/04/17 10:48:59;;;;;;;;;;;;;;;8.86;66.92;97103.13;5436874;26;20028;-75
2024/04/17 10:51:46;;;;;;;;;;;;;;;8.85;65.80;97099.63;5431438;26;20309;-73
2024/04/17 10:54:37;;;;;;;;;;;;;;;8.99;65.94;97104.06;5441067;26;19928;-74
2024/04/17 10:57:24;;;;;;;;;;;;;;;8.97;64.77;97107.09;5445261;26;19993;-75
2024/04/17 11:00:17;;;;;;;;;;;;;;;9.06;65.55;97098.97;5420644;26;20070;-75
2024/04/17 11:03:08;;;;;;;;;;;;;;;9.08;64.38;97107.56;5430158;26;19936;-75
2024/04/17 11:05:56;;;;;;;;;;;;;;;9.26;63.53;97100.97;5444999;26;19928;-75
2024/04/17 11:08:47;;;;;;;;;;;;;;;9.30;63.74;97099.22;5414858;26;19936;-75
2024/04/17 11:11:43;;;;;;;;;;;;;;;9.10;62.77;97105.31;5411989;26;20322;-74
2024/04/17 11:14:33;;;;;;;;;;;;;;;9.05;62.98;97106.28;5423758;26;19956;-74
2024/04/17 11:17:25;;;;;;;;;;;;;;;9.08;64.21;97105.63;5412924;26;19997;-74
2024/04/17 11:20:18;;;;;;;;;;;;;;;9.02;65.22;97103.44;5431946;26;19936;-75
2024/04/17 11:23:05;;;;;;;;;;;;;;;9.32;64.71;97091.59;5448323;26;19939;-75
2024/04/17 11:25:56;;;;;;;;;;;;;;;9.45;62.51;97093.28;5423458;26;20055;-75
2024/04/17 11:28:44;;;;;;;;;;;;;;;9.59;62.70;97095.00;5423674;26;19943;-74
2024/04/17 11:31:37;;;;;;;;;;;;;;;9.71;62.46;97097.81;5419238;26;19941;-75
2024/04/17 11:34:27;;;;;;;;;;;;;;;9.90;62.80;97089.28;5414968;26;20258;-74
2024/04/17 11:37:18;;;;;;;;;;;;;;;9.99;59.87;97081.91;5422258;26;19928;-74
2024/04/17 11:40:08;;;;;;;;;;;;;;;9.95;59.34;97084.47;5421811;26;19929;-75
2024/04/17 11:42:55;;;;;;;;;;;;;;;10.07;61.10;97088.41;5435227;26;19937;-74
2024/04/17 11:45:45;;;;;;;;;;;;;;;10.00;60.75;97082.69;5447437;26;19935;-74
2024/04/17 11:48:35;;;;;;;;;;;;;;;9.93;60.84;97086.72;5408675;26;19936;-74
2024/04/17 11:51:29;;;;;;;;;;;;;;;9.78;60.12;97092.69;5400694;26;20364;-75
2024/04/17 11:54:18;;;;;;;;;;;;;;;9.96;58.71;97083.34;5432368;26;19988;-74
2024/04/17 11:57:08;;;;;;;;;;;;;;;10.15;59.76;97079.41;5431798;26;19960;-74
2024/04/17 11:59:58;;;;;;;;;;;;;;;10.06;58.78;97081.38;5419152;26;19937;-74
2024/04/17 12:02:49;;;;;;;;;;;;;;;9.80;59.31;97104.03;5447037;26;19952;-72
2024/04/17 12:05:37;;;;;;;;;;;;;;;9.00;61.63;97111.06;5408660;26;20442;-73
2024/04/17 12:08:32;;;;;;;;;;;;;;;8.88;61.03;97117.91;5411361;26;19941;-73
2024/04/17 12:11:19;;;;;;;;;;;;;;;8.91;62.59;97114.59;5428879;26;20430;-72
2024/04/17 12:14:09;;;;;;;;;;;;;;;8.39;62.04;97132.72;5423222;26;19961;-73
2024/04/17 12:16:56;;;;;;;;;;;;;;;8.38;62.69;97131.91;5416212;26;19936;-73
2024/04/17 12:19:46;;;;;;;;;;;;;;;8.37;62.83;97126.81;5445409;26;19936;-73
2024/04/17 12:22:34;;;;;;;;;;;;;;;8.47;63.52;97131.94;5441631;26;20001;-72
2024/04/17 12:28:32;;;;;;;;;;;;;;;8.62;62.16;97145.00;5398276;26;19941;-72
2024/04/17 12:31:21;;;;;;;;;;;;;;;8.63;61.05;97143.91;5429908;26;20435;-72
2024/04/17 12:34:11;;;;;;;;;;;;;;;8.50;59.80;97138.63;5419817;26;19937;-73
2024/04/17 12:37:01;;;;;;;;;;;;;;;8.47;61.38;97136.53;5443989;26;19936;-73
2024/04/17 12:39:52;;;;;;;;;;;;;;;8.38;61.30;97145.44;5429753;26;20747;-73
2024/04/17 12:42:44;;;;;;;;;;;;;;;8.54;61.56;97140.38;5421469;26;19937;-73
2024/04/17 12:45:35;;;;;;;;;;;;;;;8.44;60.83;97137.97;5432210;26;19940;-73
2024/04/17 12:48:25;;;;;;;;;;;;;;;8.54;60.09;97142.28;5417717;26;19933;-73
2024/04/17 12:51:16;;;;;;;;;;;;;;;8.54;59.51;97147.69;5440327;26;19935;-72
2024/04/17 12:54:06;;;;;;;;;;;;;;;8.72;59.47;97148.50;5422271;26;19928;-72
2024/04/17 12:56:56;;;;;;;;;;;;;;;8.54;59.49;97151.19;5406226;26;20294;-73
2024/04/17 12:59:50;;;;;;;;;;;;;;;8.40;60.06;97145.13;5421533;26;19929;-73
2024/04/17 13:02:37;;;;;;;;;;;;;;;8.45;56.11;97142.25;5440998;26;19934;-73
2024/04/17 13:05:27;;;;;;;;;;;;;;;8.43;55.30;97141.00;5432645;26;20364;-74
2024/04/17 13:08:14;;;;;;;;;;;;;;;8.54;55.59;97139.59;5442172;26;19929;-72
2024/04/17 13:11:05;;;;;;;;;;;;;;;8.62;53.04;97139.56;5421392;26;19998;-73
2024/04/17 13:13:57;;;;;;;;;;;;;;;8.84;53.76;97135.13;5447395;26;19929;-72
2024/04/17 13:16:50;;;;;;;;;;;;;;;9.10;53.61;97132.41;5438296;26;19945;-72
2024/04/17 13:19:40;;;;;;;;;;;;;;;9.29;53.34;97130.16;5471104;26;19940;-72
2024/04/17 13:22:28;;;;;;;;;;;;;;;9.49;52.74;97119.75;5421578;26;20052;-74
2024/04/17 13:25:19;;;;;;;;;;;;;;;9.51;51.33;97110.16;5447335;26;19929;-72
2024/04/17 13:28:06;;;;;;;;;;;;;;;9.74;48.17;97113.44;5435315;26;19936;-74
2024/04/17 13:30:58;;;;;;;;;;;;;;;9.71;48.82;97109.47;5441085;26;19936;-72
2024/04/17 13:33:48;;;;;;;;;;;;;;;9.90;47.58;97105.56;5444073;26;19943;-72
2024/04/17 13:36:38;;;;;;;;;;;;;;;10.13;45.79;97097.97;5444752;26;19928;-72
2024/04/17 13:39:25;;;;;;;;;;;;;;;10.09;42.45;97097.81;5439269;26;19940;-72
2024/04/17 13:42:15;;;;;;;;;;;;;;;10.15;42.37;97093.78;5444705;26;19964;-73
2024/04/17 13:45:05;;;;;;;;;;;;;;;9.94;43.35;97101.88;5437672;26;19935;-73
2024/04/17 13:47:55;;;;;;;;;;;;;;;10.03;42.43;97101.03;5421115;26;19928;-73
2024/04/17 13:50:45;;;;;;;;;;;;;;;10.12;43.28;97101.78;5420501;26;19929;-72
2024/04/17 13:53:35;;;;;;;;;;;;;;;10.11;43.23;97089.31;5425812;26;19929;-72
2024/04/17 13:56:26;;;;;;;;;;;;;;;10.09;43.50;97088.88;5439941;26;19993;-73
2024/04/17 13:59:13;;;;;;;;;;;;;;;10.11;42.31;97089.31;5404844;26;19935;-72
2024/04/17 14:02:04;;;;;;;;;;;;;;;9.96;44.23;97086.06;5403203;26;19936;-74
2024/04/17 14:04:51;;;;;;;;;;;;;;;9.83;44.74;97089.78;5433673;26;19940;-73
2024/04/17 14:07:47;;;;;;;;;;;;;;;9.79;45.24;97093.47;5442378;26;19939;-72
2024/04/17 14:10:34;;;;;;;;;;;;;;;9.87;45.89;97084.53;5437248;26;19932;-73
2024/04/17 14:13:25;;;;;;;;;;;;;;;9.75;46.14;97095.25;5410255;26;19940;-73
2024/04/17 14:16:15;;;;;;;;;;;;;;;9.89;46.40;97083.06;5428751;26;19941;-73
2024/04/17 14:19:02;;;;;;;;;;;;;;;10.08;46.46;97087.28;5438912;26;19929;-73
2024/04/17 14:21:52;;;;;;;;;;;;;;;10.05;45.46;97083.28;5438014;26;19944;-73
2024/04/17 14:24:43;;;;;;;;;;;;;;;10.10;46.29;97077.69;5437430;26;20360;-82
2024/04/17 14:27:33;;;;;;;;;;;;;;;10.19;49.02;97077.63;5439678;26;19940;-82
2024/04/17 14:30:20;;;;;;;;;;;;;;;10.09;48.26;97080.72;5419567;26;20387;-79
2024/04/17 14:33:10;;;;;;;;;;;;;;;10.22;48.50;97085.91;5415733;26;19929;-87
2024/04/17 14:35:58;;;;;;;;;;;;;;;10.08;47.85;97077.22;5437808;26;20282;-78
2024/04/17 14:38:49;;;;;;;;;;;;;;;10.08;48.83;97076.44;5450508;26;19981;-85
2024/04/17 14:41:42;;;;;;;;;;;;;;;10.28;48.64;97081.13;5413426;26;20284;-77
2024/04/17 14:44:32;;;;;;;;;;;;;;;10.34;47.90;97077.09;5438567;26;19957;-77
2024/04/17 14:47:47;;;;;;;;;;;;;;;10.45;49.22;97081.00;5419638;26;19940;-82
2024/04/17 14:50:35;;;;;;;;;;;;;;;10.43;47.69;97069.66;5436229;26;20462;-78
2024/04/17 14:53:25;;;;;;;;;;;;;;;10.40;48.53;97075.78;5420652;26;20765;-71
2024/04/17 14:56:12;;;;;;;;;;;;;;;10.34;47.61;97076.31;5434028;26;20279;-70